Time;durP1;ratioP1;P1;durP2;ratioP2;P2;SDS_P1;SDS_P2;PMS_P1;PMS_P2;Temp;Humidity;BMP_temperature;BMP_pressure;BME280_temperature;BME280_humidity;BME280_pressure;Samples;Min_cycle;Max_cycle;Signal;HPM_P1;HPM_P2
2022/06/23 00:01:57;;;;;;;0.10;0.10;;;;;;;24.39;45.16;99942.28;4998117;28;20027;-74
2022/06/23 00:04:26;;;;;;;0.10;0.10;;;;;;;24.35;44.73;99947.31;4996550;28;20042;-75
2022/06/23 00:06:55;;;;;;;0.10;0.10;;;;;;;24.29;44.28;99952.00;4996372;28;20114;-75
2022/06/23 00:09:45;;;;;;;0.10;0.10;;;;;;;24.29;44.94;99946.31;4996414;28;20129;-75
2022/06/23 00:12:19;;;;;;;0.10;0.10;;;;;;;24.23;44.19;99940.38;4996635;28;20552;-75
2022/06/23 00:15:03;;;;;;;0.10;0.10;;;;;;;24.11;44.44;99926.25;4996533;28;20499;-76
2022/06/23 00:17:32;;;;;;;0.10;0.10;;;;;;;24.17;44.37;99938.59;4996277;28;20034;-75
2022/06/23 00:20:06;;;;;;;0.10;0.10;;;;;;;24.17;44.25;99936.56;5013199;28;20061;-74
2022/06/23 00:22:33;;;;;;;0.10;0.10;;;;;;;24.11;44.37;99934.78;4999267;28;20503;-74
2022/06/23 00:25:02;;;;;;;0.10;0.10;;;;;;;24.10;44.58;99936.81;5017024;28;20531;-74
2022/06/23 00:30:28;;;;;;;0.10;0.10;;;;;;;24.11;44.13;99938.41;5017341;28;20447;-74
2022/06/23 00:33:04;;;;;;;0.10;0.10;;;;;;;24.19;44.46;99945.44;5017356;28;20029;-74
2022/06/23 00:35:30;;;;;;;0.10;0.10;;;;;;;24.08;44.40;99938.56;4999156;28;20091;-74
2022/06/23 00:37:55;;;;;;;0.10;0.10;;;;;;;24.12;44.37;99939.19;4999901;28;20038;-74
2022/06/23 00:40:23;;;;;;;0.10;0.10;;;;;;;24.03;44.91;99937.88;4999344;28;20133;-74
2022/06/23 00:43:03;;;;;;;0.10;0.10;;;;;;;24.02;44.92;99930.63;4999318;28;20033;-74
2022/06/23 00:45:45;;;;;;;0.10;0.10;;;;;;;23.95;44.80;99930.88;4999809;28;20535;-74
2022/06/23 00:48:33;;;;;;;0.10;0.10;;;;;;;23.99;44.87;99942.91;4999351;28;20436;-74
2022/06/23 00:51:09;;;;;;;0.10;0.10;;;;;;;24.05;44.63;99918.31;4998847;28;20033;-74
2022/06/23 00:53:46;;;;;;;0.10;0.10;;;;;;;24.02;44.92;99913.56;4998946;28;20112;-74
2022/06/23 00:56:24;;;;;;;0.10;0.10;;;;;;;24.03;45.29;99920.84;4998833;28;20120;-74
2022/06/23 00:58:56;;;;;;;0.10;0.10;;;;;;;23.95;45.84;99919.50;4999480;28;20037;-74
2022/06/23 01:01:53;;;;;;;0.10;0.10;;;;;;;23.93;46.05;99932.59;4998652;28;20037;-74
2022/06/23 01:04:35;;;;;;;0.10;0.10;;;;;;;23.96;46.38;99926.75;4999220;28;20029;-74
2022/06/23 01:07:39;;;;;;;0.10;0.10;;;;;;;23.98;46.24;99929.97;4998536;28;20473;-72
2022/06/23 01:10:11;;;;;;;0.20;0.20;;;;;;;23.88;46.83;99936.81;4994614;28;20038;-72
2022/06/23 01:12:45;;;;;;;0.17;0.17;;;;;;;23.89;46.80;99932.72;4999010;28;20042;-72
2022/06/23 01:15:10;;;;;;;0.10;0.10;;;;;;;23.91;47.12;99930.19;4998416;28;20030;-72
2022/06/23 01:18:07;;;;;;;0.10;0.10;;;;;;;23.91;47.92;99930.19;4998360;28;20096;-72
2022/06/23 01:20:53;;;;;;;0.10;0.10;;;;;;;23.90;47.99;99928.59;4944042;28;20043;-73
2022/06/23 01:24:07;;;;;;;0.10;0.10;;;;;;;23.91;47.72;99933.03;4975600;28;20033;-74
2022/06/23 01:27:10;;;;;;;0.10;0.10;;;;;;;23.94;47.40;99934.16;4976136;28;20446;-72
2022/06/23 01:29:49;;;;;;;0.10;0.10;;;;;;;23.95;46.92;99919.50;4975814;28;20041;-72
2022/06/23 01:32:25;;;;;;;0.13;0.13;;;;;;;23.94;46.51;99934.97;4975419;28;20051;-73
2022/06/23 01:34:56;;;;;;;0.20;0.20;;;;;;;23.85;47.26;99951.91;4976100;28;20046;-73
2022/06/23 01:37:28;;;;;;;0.10;0.10;;;;;;;23.78;47.28;99937.97;4975427;28;20027;-72
2022/06/23 01:40:02;;;;;;;0.20;0.20;;;;;;;23.79;47.27;99940.34;4976958;28;20035;-73
2022/06/23 01:42:44;;;;;;;0.20;0.20;;;;;;;23.80;47.03;99941.16;4975991;28;20099;-74
2022/06/23 01:45:26;;;;;;;0.20;0.20;;;;;;;23.66;47.27;99941.66;4975265;28;20489;-72
2022/06/23 01:48:06;;;;;;;0.10;0.10;;;;;;;23.55;47.62;99942.00;4975453;28;20105;-75
2022/06/23 01:50:38;;;;;;;0.10;0.10;;;;;;;23.43;48.07;99952.09;4975728;28;20031;-72
2022/06/23 01:53:22;;;;;;;0.10;0.10;;;;;;;23.41;47.90;99957.47;4975068;28;20130;-73
2022/06/23 01:56:07;;;;;;;0.10;0.10;;;;;;;23.40;48.38;99958.72;4975249;28;20034;-73
2022/06/23 01:58:45;;;;;;;0.17;0.17;;;;;;;23.13;48.67;99918.69;4974992;28;20113;-72
2022/06/23 02:01:19;;;;;;;0.10;0.10;;;;;;;23.40;48.73;99963.59;4974971;28;20066;-73
2022/06/23 02:03:50;;;;;;;0.10;0.10;;;;;;;23.36;49.02;99958.03;4975271;28;20113;-73
2022/06/23 02:06:21;;;;;;;0.20;0.20;;;;;;;23.32;49.17;99965.06;4975065;28;20027;-73
2022/06/23 02:09:04;;;;;;;0.10;0.10;;;;;;;23.25;49.46;99964.06;4975979;28;20393;-73
2022/06/23 02:11:32;;;;;;;0.17;0.17;;;;;;;23.29;49.64;99963.16;4974816;28;20178;-73
2022/06/23 02:14:29;;;;;;;0.10;0.10;;;;;;;23.33;49.78;99963.81;4975507;28;20504;-73
2022/06/23 02:17:15;;;;;;;0.10;0.10;;;;;;;23.32;49.71;99965.88;4974895;28;20026;-74
2022/06/23 02:19:50;;;;;;;0.10;0.10;;;;;;;23.30;50.14;99965.53;5001741;28;20484;-73
2022/06/23 02:22:27;;;;;;;0.10;0.10;;;;;;;23.35;50.22;99976.31;4997469;28;20048;-74
2022/06/23 02:24:56;;;;;;;0.10;0.10;;;;;;;;;;4997935;28;20030;-73
2022/06/23 02:27:31;;;;;;;0.20;0.20;;;;;;;23.29;50.56;99968.84;4997581;28;20026;-73
2022/06/23 02:30:10;;;;;;;0.20;0.20;;;;;;;23.31;50.67;99972.00;4997845;28;20079;-74
2022/06/23 02:32:54;;;;;;;0.20;0.20;;;;;;;23.31;50.84;99975.63;5014885;28;20095;-74
2022/06/23 02:35:34;;;;;;;0.10;0.10;;;;;;;23.31;50.88;99983.34;4996972;28;20092;-74
2022/06/23 02:38:09;;;;;;;0.10;0.10;;;;;;;23.26;50.53;99987.56;5014279;28;20026;-74
2022/06/23 02:40:41;;;;;;;0.20;0.20;;;;;;;23.05;51.22;99999.59;4997348;28;20120;-74
2022/06/23 02:43:15;;;;;;;0.10;0.10;;;;;;;22.90;52.24;100000.00;4997100;28;20037;-73
2022/06/23 02:45:43;;;;;;;0.20;0.20;;;;;;;22.84;52.35;100006.69;4997296;28;20034;-73
2022/06/23 02:48:57;;;;;;;0.10;0.10;;;;;;;22.74;52.43;100011.41;4997148;28;20100;-73
2022/06/23 02:51:57;;;;;;;0.10;0.10;;;;;;;22.64;51.82;99996.34;4996640;28;20038;-73
2022/06/23 02:54:35;;;;;;;0.20;0.20;;;;;;;22.66;50.89;100012.88;4966882;28;20192;-74
2022/06/23 02:57:51;;;;;;;0.20;0.20;;;;;;;22.63;51.22;100020.25;4996547;28;20030;-74
2022/06/23 03:00:24;;;;;;;0.20;0.20;;;;;;;22.67;50.26;100020.94;4918898;29;20027;-74
2022/06/23 03:03:07;;;;;;;0.20;0.20;;;;;;;22.67;50.43;100020.94;4935021;29;20040;-74
2022/06/23 03:05:44;;;;;;;0.20;0.20;;;;;;;22.55;49.50;100007.53;4979874;28;20036;-74
2022/06/23 03:08:23;;;;;;;0.10;0.10;;;;;;;22.65;49.31;100042.50;4996414;28;20030;-74
2022/06/23 03:10:53;;;;;;;0.10;0.10;;;;;;;22.68;49.17;100038.75;4996731;28;20381;-74
2022/06/23 03:13:33;;;;;;;0.10;0.10;;;;;;;22.66;48.86;100044.09;4996598;28;20088;-74
2022/06/23 03:16:01;;;;;;;0.10;0.10;;;;;;;22.50;49.60;100036.44;4996437;28;20022;-74
2022/06/23 03:18:41;;;;;;;0.20;0.20;;;;;;;22.47;49.89;100035.28;4996172;28;20053;-74
2022/06/23 03:21:22;;;;;;;0.10;0.10;;;;;;;22.52;49.95;100038.81;4996291;28;20034;-74
2022/06/23 03:23:50;;;;;;;0.15;0.15;;;;;;;22.47;50.15;100035.28;5013862;28;20034;-74
2022/06/23 03:26:25;;;;;;;0.20;0.20;;;;;;;22.18;50.59;100008.97;4996769;28;20032;-74
2022/06/23 03:29:11;;;;;;;0.10;0.10;;;;;;;22.41;50.70;100042.75;4996106;28;20037;-74
2022/06/23 03:31:43;;;;;;;0.10;0.10;;;;;;;22.37;50.80;100032.75;4982435;28;20041;-74
2022/06/23 03:34:24;;;;;;;0.10;0.10;;;;;;;22.34;50.85;100042.94;4996148;28;20030;-74
2022/06/23 03:36:56;;;;;;;0.20;0.20;;;;;;;22.31;50.34;100026.81;4996403;28;20083;-74
2022/06/23 03:43:08;;;;;;;0.15;0.15;;;;;;;22.25;51.81;100025.78;4953561;29;20042;-74
2022/06/23 03:45:41;;;;;;;0.20;0.20;;;;;;;22.40;51.14;100029.81;4953363;29;20131;-74
2022/06/23 03:48:14;;;;;;;;;;;;;;;22.30;50.38;100030.91;4997727;28;20156;-74
2022/06/23 03:51:22;;;;;;;0.20;0.20;;;;;;;22.31;51.23;100046.66;5014116;28;20012;-74
2022/06/23 03:54:18;;;;;;;0.20;0.20;;;;;;;22.36;50.76;100057.44;4996211;28;20483;-74
2022/06/23 03:56:47;;;;;;;0.10;0.10;;;;;;;22.41;50.62;100054.06;4993754;28;20034;-74
2022/06/23 03:59:36;;;;;;;0.20;0.20;;;;;;;22.46;50.16;100047.88;4996007;28;20062;-74
2022/06/23 04:02:15;;;;;;;0.20;0.20;;;;;;;22.57;49.87;100049.59;5013841;28;20029;-74
2022/06/23 04:04:55;;;;;;;0.20;0.20;;;;;;;22.68;49.66;100038.75;4995703;28;20468;-74
2022/06/23 04:07:42;;;;;;;0.10;0.10;;;;;;;22.73;48.87;100046.69;4996249;28;20496;-74
2022/06/23 04:10:39;;;;;;;0.20;0.20;;;;;;;22.90;49.14;100050.28;4995899;28;20081;-74
2022/06/23 04:13:34;;;;;;;0.20;0.20;;;;;;;23.04;48.77;100043.41;4969197;28;20040;-74
2022/06/23 04:16:08;;;;;;;0.10;0.10;;;;;;;23.18;48.64;100043.75;4986434;28;20038;-74
2022/06/23 04:18:39;;;;;;;0.13;0.13;;;;;;;23.34;48.65;100040.03;4992271;28;20061;-74
2022/06/23 04:21:17;;;;;;;0.20;0.20;;;;;;;23.57;48.43;100043.75;4993051;28;20470;-74
2022/06/23 04:23:49;;;;;;;0.10;0.10;;;;;;;23.80;48.06;100049.09;4992979;28;20128;-74
2022/06/23 04:26:20;;;;;;;0.20;0.20;;;;;;;24.05;47.24;100051.88;4992335;28;20084;-74
2022/06/23 04:28:58;;;;;;;0.10;0.10;;;;;;;24.19;46.99;100046.97;4997479;28;20033;-74
2022/06/23 04:31:30;;;;;;;0.20;0.20;;;;;;;24.51;46.57;100058.03;4996507;28;20065;-74
2022/06/23 04:33:59;;;;;;;0.20;0.20;;;;;;;24.76;46.00;100044.91;4997496;28;20090;-74
2022/06/23 04:36:28;;;;;;;0.20;0.20;;;;;;;25.07;45.67;100047.81;4995975;28;20023;-74
2022/06/23 04:39:25;;;;;;;0.20;0.20;;;;;;;25.43;45.31;100047.22;4995983;28;20046;-73
2022/06/23 04:42:05;;;;;;;0.20;0.20;;;;;;;25.48;44.98;100042.97;4995971;28;20473;-73
2022/06/23 04:44:33;;;;;;;0.20;0.20;;;;;;;25.61;45.05;100052.16;4996027;28;20492;-74
2022/06/23 04:47:17;;;;;;;0.20;0.20;;;;;;;25.65;45.38;100052.03;4995643;28;20393;-74
2022/06/23 04:49:45;;;;;;;;;;;;;;;26.00;44.74;100049.78;4997352;28;20076;-74
2022/06/23 04:52:32;;;;;;;0.15;0.15;;;;;;;25.97;44.13;100054.34;4995477;28;19939;-75
2022/06/23 04:55:04;;;;;;;0.20;0.20;;;;;;;25.92;44.24;100032.19;4996339;28;20092;-74
2022/06/23 04:57:46;;;;;;;0.10;0.10;;;;;;;25.61;46.04;100049.31;4995530;28;20034;-74
2022/06/23 05:00:29;;;;;;;0.20;0.20;;;;;;;25.27;45.89;100056.00;4995648;28;20045;-73
2022/06/23 05:02:59;;;;;;;0.20;0.20;;;;;;;25.00;46.24;100068.78;4995799;28;20039;-74
2022/06/23 05:05:32;;;;;;;0.10;0.10;;;;;;;24.84;46.88;100071.84;4995399;28;20064;-73
2022/06/23 05:07:58;;;;;;;;;;;;;;;24.90;46.44;100072.03;4996275;28;20026;-73
2022/06/23 05:10:41;;;;;;;0.10;0.10;;;;;;;25.01;46.09;100066.72;4995924;28;20387;-73
2022/06/23 05:13:15;;;;;;;0.10;0.10;;;;;;;25.24;45.97;100063.41;4995537;28;20062;-73
2022/06/23 05:15:55;;;;;;;0.10;0.10;;;;;;;25.28;46.43;100064.06;4995116;28;20473;-73
2022/06/23 05:18:28;;;;;;;0.20;0.20;;;;;;;26.19;45.23;100079.09;4998778;28;20034;-73
2022/06/23 05:21:13;;;;;;;;;;;;;;;26.30;44.66;100085.91;4999176;28;20377;-74
2022/06/23 05:24:01;;;;;;;0.15;0.15;;;;;;;26.58;44.10;100083.09;4998872;28;20307;-73
2022/06/23 05:26:30;;;;;;;0.20;0.20;;;;;;;26.85;43.84;100083.09;5016304;28;20528;-73
2022/06/23 05:29:01;;;;;;;0.20;0.20;;;;;;;26.72;43.73;100079.63;4998120;28;20022;-73
2022/06/23 05:31:38;;;;;;;0.20;0.20;;;;;;;26.28;44.62;100079.91;4998891;28;20041;-73
2022/06/23 05:34:25;;;;;;;0.10;0.10;;;;;;;26.07;45.56;100067.38;4998200;28;20034;-73
2022/06/23 05:36:59;;;;;;;0.20;0.20;;;;;;;26.37;45.49;100067.72;4998555;28;20095;-73
2022/06/23 05:39:37;;;;;;;0.20;0.20;;;;;;;26.04;45.79;100074.00;4998102;28;20030;-74
2022/06/23 05:42:13;;;;;;;0.20;0.20;;;;;;;25.96;46.82;100071.94;4997972;28;20461;-73
2022/06/23 05:45:06;;;;;;;0.20;0.20;;;;;;;25.91;46.20;100076.19;4998134;28;20026;-73
2022/06/23 05:47:33;;;;;;;0.10;0.10;;;;;;;26.50;44.97;100079.78;5015491;28;20032;-73
2022/06/23 05:50:04;;;;;;;0.10;0.10;;;;;;;27.08;44.27;100080.88;4998229;28;20026;-74
2022/06/23 05:53:02;;;;;;;0.20;0.20;;;;;;;27.21;43.54;100083.53;4997863;28;20400;-73
2022/06/23 05:56:00;;;;;;;0.17;0.17;;;;;;;27.85;42.35;100086.16;4984538;28;20045;-74
2022/06/23 05:58:26;;;;;;;0.10;0.10;;;;;;;28.08;41.95;100076.81;4994407;28;20044;-74
2022/06/23 06:00:54;;;;;;;0.10;0.10;;;;;;;28.59;40.88;100097.91;4998030;28;20455;-74
2022/06/23 06:03:27;;;;;;;0.10;0.10;;;;;;;28.58;40.54;100073.44;4997717;28;20033;-74
2022/06/23 06:06:00;;;;;;;0.10;0.10;;;;;;;28.42;40.84;100104.09;5015344;28;20041;-74
2022/06/23 06:08:31;;;;;;;0.10;0.10;;;;;;;28.30;41.59;100104.31;5015495;28;20117;-74
2022/06/23 06:11:02;;;;;;;0.10;0.10;;;;;;;28.43;40.78;100097.09;4997783;28;20125;-74
2022/06/23 06:13:33;;;;;;;0.10;0.10;;;;;;;28.83;40.28;100092.16;4997380;28;20036;-74
2022/06/23 06:16:00;;;;;;;0.10;0.10;;;;;;;29.41;39.60;100099.22;4997739;28;20428;-74
2022/06/23 06:18:41;;;;;;;0.10;0.10;;;;;;;29.29;39.03;100091.69;4997217;28;20054;-74
2022/06/23 06:21:11;;;;;;;0.10;0.10;;;;;;;30.05;37.11;100081.19;4997179;28;20037;-74
2022/06/23 06:23:41;;;;;;;0.10;0.10;;;;;;;29.31;37.56;100092.00;5014794;28;20384;-74
2022/06/23 06:26:13;;;;;;;0.10;0.10;;;;;;;29.69;37.31;100094.75;4997354;28;20030;-74
2022/06/23 06:28:38;;;;;;;0.10;0.10;;;;;;;29.40;36.68;100086.16;4997024;28;20030;-75
2022/06/23 06:31:23;;;;;;;0.15;0.15;;;;;;;28.96;37.83;100095.53;4997005;28;20058;-74
2022/06/23 06:34:13;;;;;;;0.10;0.10;;;;;;;28.88;38.87;100080.03;4997006;28;20116;-74
2022/06/23 06:36:44;;;;;;;0.10;0.10;;;;;;;28.92;38.39;100086.31;4997150;28;20040;-74
2022/06/23 06:39:23;;;;;;;0.10;0.10;;;;;;;28.87;38.47;100084.13;4997239;28;20037;-75
2022/06/23 06:42:01;;;;;;;0.17;0.17;;;;;;;28.94;38.55;100078.06;4996881;28;20092;-74
2022/06/23 06:44:28;;;;;;;0.10;0.10;;;;;;;29.13;38.44;100088.03;4996891;28;20041;-74
2022/06/23 06:46:54;;;;;;;0.10;0.10;;;;;;;30.08;36.47;100091.66;4996760;28;20487;-74
2022/06/23 06:49:23;;;;;;;0.10;0.10;;;;;;;30.68;35.56;100095.03;4996336;28;20030;-75
2022/06/23 06:51:50;;;;;;;0.10;0.10;;;;;;;30.75;35.18;100100.41;4996719;28;20026;-74
2022/06/23 06:54:40;;;;;;;0.10;0.10;;;;;;;30.70;35.55;100104.00;4996646;28;20092;-74
2022/06/23 06:57:13;;;;;;;0.10;0.10;;;;;;;29.68;37.59;100104.63;4996508;28;20025;-74
2022/06/23 06:59:51;;;;;;;0.10;0.10;;;;;;;29.72;37.36;100102.38;4997042;28;20033;-74
2022/06/23 07:02:40;;;;;;;0.20;0.20;;;;;;;29.84;38.24;100102.53;4996651;28;20056;-74
2022/06/23 07:05:18;;;;;;;0.10;0.10;;;;;;;30.19;37.98;100086.09;4996483;28;20125;-74
2022/06/23 07:07:48;;;;;;;0.10;0.10;;;;;;;29.75;38.46;100095.63;4997452;28;20032;-74
2022/06/23 07:10:20;;;;;;;0.10;0.10;;;;;;;29.57;38.91;100101.59;4996706;28;20044;-74
2022/06/23 07:12:52;;;;;;;0.10;0.10;;;;;;;29.62;38.11;100094.38;4996303;28;20021;-75
2022/06/23 07:15:30;;;;;;;0.10;0.10;;;;;;;30.24;37.62;100096.88;5014186;28;20265;-74
2022/06/23 07:18:03;;;;;;;0.10;0.10;;;;;;;30.90;35.86;100100.31;4996220;28;20038;-74
2022/06/23 07:20:42;;;;;;;0.10;0.10;;;;;;;31.17;34.91;100102.66;5013660;28;20049;-74
2022/06/23 07:23:42;;;;;;;0.10;0.10;;;;;;;30.78;34.48;100111.63;4996403;28;20034;-75
2022/06/23 07:26:43;;;;;;;0.10;0.10;;;;;;;31.66;33.30;100103.63;4995877;28;20068;-75
2022/06/23 07:29:35;;;;;;;0.10;0.10;;;;;;;31.70;33.05;100091.88;4991309;28;20061;-74
2022/06/23 07:32:15;;;;;;;0.10;0.10;;;;;;;32.24;30.93;100100.63;4996708;28;20042;-74
2022/06/23 07:34:54;;;;;;;0.20;0.20;;;;;;;32.16;30.23;100096.63;4996263;28;20472;-74
2022/06/23 07:37:32;;;;;;;0.20;0.20;;;;;;;32.34;30.38;100102.75;4996648;28;20040;-74
2022/06/23 07:40:05;;;;;;;0.10;0.10;;;;;;;32.01;30.17;100102.56;5013767;28;20061;-74
2022/06/23 07:42:53;;;;;;;0.10;0.10;;;;;;;32.29;30.67;100109.28;4996316;28;20061;-74
2022/06/23 07:45:52;;;;;;;0.10;0.10;;;;;;;32.66;30.62;100111.28;4996047;28;20112;-74
2022/06/23 07:48:17;;;;;;;0.10;0.10;;;;;;;32.23;30.51;100105.59;4969531;28;20044;-74
2022/06/23 07:50:43;;;;;;;0.10;0.10;;;;;;;32.96;30.02;100113.75;4996141;28;20033;-75
2022/06/23 07:53:17;;;;;;;0.10;0.10;;;;;;;33.66;28.59;100114.88;4995774;28;20100;-75
2022/06/23 07:55:45;;;;;;;0.10;0.10;;;;;;;33.63;28.37;100113.84;4996334;28;20104;-74
2022/06/23 07:58:14;;;;;;;0.15;0.15;;;;;;;32.85;29.48;100115.25;4996620;28;20121;-75
2022/06/23 08:00:42;;;;;;;0.17;0.17;;;;;;;33.61;28.66;100119.34;5013481;28;20405;-75
2022/06/23 08:03:15;;;;;;;0.10;0.10;;;;;;;33.93;28.00;100114.13;4998826;28;20034;-75
2022/06/23 08:05:48;;;;;;;0.10;0.10;;;;;;;34.45;27.84;100122.09;5000164;28;20468;-75
2022/06/23 08:08:20;;;;;;;0.10;0.10;;;;;;;35.23;27.46;100134.59;4999712;28;20113;-75
2022/06/23 08:10:48;;;;;;;0.10;0.10;;;;;;;35.06;26.91;100155.72;4999977;28;20084;-75
2022/06/23 08:13:25;;;;;;;0.10;0.10;;;;;;;34.76;27.33;100144.03;4999823;28;20069;-75
2022/06/23 08:18:43;;;;;;;0.10;0.10;;;;;;;33.82;28.93;100161.03;5017490;28;20127;-75
2022/06/23 08:21:12;;;;;;;0.10;0.10;;;;;;;33.84;28.76;100164.19;4999817;28;20484;-75
2022/06/23 08:23:46;;;;;;;0.10;0.10;;;;;;;33.87;28.88;100173.88;4999567;28;20034;-74
2022/06/23 08:26:12;;;;;;;0.10;0.10;;;;;;;34.25;28.68;100159.94;4999572;28;20461;-75
2022/06/23 08:28:39;;;;;;;0.10;0.10;;;;;;;34.17;28.95;100162.59;4983035;28;20037;-75
2022/06/23 08:31:06;;;;;;;0.10;0.10;;;;;;;33.86;29.15;100155.78;4999860;28;20056;-75
2022/06/23 08:33:33;;;;;;;0.10;0.10;;;;;;;33.81;28.85;100153.69;4999616;28;20556;-74
2022/06/23 08:36:07;;;;;;;0.10;0.10;;;;;;;33.63;29.09;100154.22;4999084;28;20041;-74
2022/06/23 08:38:52;;;;;;;0.10;0.10;;;;;;;34.29;28.64;100164.13;4998938;28;20029;-74
2022/06/23 08:41:49;;;;;;;0.10;0.10;;;;;;;34.83;27.06;100166.59;4999095;28;20107;-74
2022/06/23 08:44:28;;;;;;;0.10;0.10;;;;;;;35.63;26.42;100161.91;4992706;28;20038;-74
2022/06/23 08:47:07;;;;;;;0.10;0.10;;;;;;;36.54;25.54;100177.13;4999006;28;20037;-74
2022/06/23 08:49:43;;;;;;;0.10;0.10;;;;;;;36.15;24.95;100179.09;4999067;28;20025;-74
2022/06/23 08:52:22;;;;;;;0.10;0.10;;;;;;;36.74;24.60;100176.63;4998874;28;20120;-74
2022/06/23 08:55:02;;;;;;;0.10;0.10;;;;;;;36.34;24.34;100153.09;4999374;28;20116;-74
2022/06/23 08:57:30;;;;;;;0.10;0.10;;;;;;;37.33;23.70;100180.56;4999111;28;20026;-74
2022/06/23 09:00:10;;;;;;;0.10;0.10;;;;;;;37.50;23.14;100189.03;4998693;28;20033;-74
2022/06/23 09:02:54;;;;;;;0.10;0.10;;;;;;;36.56;24.14;100188.97;4999567;28;20068;-74
2022/06/23 09:05:28;;;;;;;0.10;0.10;;;;;;;36.90;23.62;100189.34;4999119;28;20112;-74
2022/06/23 09:08:08;;;;;;;0.10;0.10;;;;;;;37.46;23.27;100180.66;4998511;28;20030;-74
2022/06/23 09:10:46;;;;;;;0.10;0.10;;;;;;;37.58;23.33;100168.88;4999067;28;20464;-74
2022/06/23 09:13:27;;;;;;;0.10;0.10;;;;;;;37.53;23.81;100167.63;4996816;28;20076;-75
2022/06/23 09:16:26;;;;;;;0.10;0.10;;;;;;;36.55;24.20;100172.91;4999040;28;20026;-74
2022/06/23 09:18:51;;;;;;;0.10;0.10;;;;;;;35.47;25.09;100159.94;4995500;28;20046;-74
2022/06/23 09:21:40;;;;;;;0.10;0.10;;;;;;;34.36;26.80;100163.59;4995684;28;20365;-74
2022/06/23 09:24:11;;;;;;;0.10;0.10;;;;;;;33.59;27.92;100174.66;4995900;28;20061;-74
2022/06/23 09:26:49;;;;;;;0.10;0.10;;;;;;;34.21;27.74;100174.66;4995543;28;20026;-74
2022/06/23 09:29:15;;;;;;;0.10;0.10;;;;;;;33.65;28.04;100176.78;4996297;28;20469;-75
2022/06/23 09:32:06;;;;;;;0.10;0.10;;;;;;;34.43;27.08;100178.81;4995499;28;20030;-74
2022/06/23 09:34:50;;;;;;;0.10;0.10;;;;;;;34.75;27.01;100173.47;4996652;28;20058;-74
2022/06/23 09:37:51;;;;;;;0.10;0.10;;;;;;;34.32;26.61;100177.53;4994883;28;20030;-75
2022/06/23 09:40:42;;;;;;;0.10;0.10;;;;;;;34.07;26.94;100176.50;4995086;28;20477;-75
2022/06/23 09:43:10;;;;;;;0.10;0.10;;;;;;;32.94;28.31;100156.72;4995201;28;20365;-75
2022/06/23 09:45:52;;;;;;;0.10;0.10;;;;;;;33.40;28.08;100169.91;4994754;28;20448;-74
2022/06/23 09:49:02;;;;;;;0.10;0.10;;;;;;;33.51;28.21;100164.19;4994398;28;20121;-75
2022/06/23 09:51:45;;;;;;;0.10;0.10;;;;;;;33.80;27.40;100160.78;4992386;28;20093;-74
2022/06/23 09:54:40;;;;;;;0.10;0.10;;;;;;;34.15;26.95;100147.91;4994624;28;20030;-74
2022/06/23 09:57:13;;;;;;;0.10;0.10;;;;;;;34.32;26.65;100150.75;4965125;28;20105;-74
2022/06/23 09:59:47;;;;;;;0.10;0.10;;;;;;;34.71;24.98;100136.19;4995300;28;20487;-73
2022/06/23 10:02:34;;;;;;;0.10;0.10;;;;;;;35.04;25.61;100149.69;4995086;28;20424;-74
2022/06/23 10:05:27;;;;;;;0.10;0.10;;;;;;;34.97;25.27;100146.59;4994427;28;20026;-74
2022/06/23 10:08:27;;;;;;;0.10;0.10;;;;;;;34.80;25.61;100144.53;4993660;28;20500;-74
2022/06/23 10:11:11;;;;;;;0.10;0.10;;;;;;;34.76;25.28;100126.69;4989716;28;20116;-74
2022/06/23 10:13:48;;;;;;;0.10;0.10;;;;;;;34.89;25.60;100138.47;4995066;28;20031;-74
2022/06/23 10:16:41;;;;;;;0.10;0.10;;;;;;;35.25;25.06;100141.41;4994433;28;20082;-74
2022/06/23 10:19:34;;;;;;;0.10;0.10;;;;;;;35.07;25.71;100159.41;4993836;28;20058;-74
2022/06/23 10:22:12;;;;;;;0.10;0.10;;;;;;;34.72;25.90;100152.19;4994425;28;20120;-74
2022/06/23 10:24:53;;;;;;;0.10;0.10;;;;;;;34.48;26.67;100149.16;4993285;28;20113;-74
2022/06/23 10:27:51;;;;;;;0.10;0.10;;;;;;;34.23;26.41;100125.03;4994408;28;20030;-74
2022/06/23 10:30:37;;;;;;;0.10;0.10;;;;;;;34.97;26.00;100141.59;4994645;28;20030;-75
2022/06/23 10:33:12;;;;;;;0.10;0.10;;;;;;;34.42;26.26;100148.38;4993872;28;20041;-74
2022/06/23 10:35:37;;;;;;;0.10;0.10;;;;;;;34.37;26.74;100141.28;4993808;28;20034;-74
2022/06/23 10:38:21;;;;;;;0.10;0.10;;;;;;;33.76;27.43;100145.81;4994517;28;20034;-75
2022/06/23 10:41:15;;;;;;;0.10;0.10;;;;;;;33.52;27.37;100139.81;4994394;28;20034;-75
2022/06/23 10:43:59;;;;;;;0.10;0.10;;;;;;;33.69;28.03;100146.34;4993243;28;20065;-74
2022/06/23 10:46:34;;;;;;;0.10;0.10;;;;;;;34.04;27.71;100147.94;4994318;28;20026;-74
2022/06/23 10:49:42;;;;;;;0.10;0.10;;;;;;;33.66;28.59;100153.16;4993700;28;20208;-74
2022/06/23 10:52:27;;;;;;;0.10;0.10;;;;;;;33.47;28.33;100152.13;4975923;28;20201;-75
2022/06/23 10:54:55;;;;;;;0.10;0.10;;;;;;;33.37;28.50;100142.91;4994172;28;20050;-75
2022/06/23 10:57:27;;;;;;;0.10;0.10;;;;;;;33.12;29.41;100141.81;4994209;28;20373;-75
2022/06/23 11:00:01;;;;;;;0.10;0.10;;;;;;;33.36;29.40;100147.91;4994147;28;20030;-75
2022/06/23 11:02:49;;;;;;;0.10;0.10;;;;;;;32.92;30.45;100147.78;4993959;28;20030;-75
2022/06/23 11:05:29;;;;;;;0.10;0.10;;;;;;;32.86;30.88;100157.16;4993267;28;20096;-75
2022/06/23 11:08:00;;;;;;;0.10;0.10;;;;;;;32.50;31.61;100158.09;4993821;28;20169;-74
2022/06/23 11:11:02;;;;;;;0.10;0.10;;;;;;;32.33;32.00;100160.84;4993296;28;20133;-75
2022/06/23 11:13:51;;;;;;;0.10;0.10;;;;;;;31.93;32.63;100161.91;4993226;28;20049;-75
2022/06/23 11:16:35;;;;;;;0.10;0.10;;;;;;;32.06;32.09;100159.34;4993134;28;20038;-75
2022/06/23 11:19:29;;;;;;;0.10;0.10;;;;;;;31.97;32.28;100169.00;4992896;28;20129;-75
2022/06/23 11:22:13;;;;;;;0.10;0.10;;;;;;;32.13;31.59;100169.63;4993149;28;20034;-75
2022/06/23 11:24:54;;;;;;;0.10;0.10;;;;;;;32.42;31.44;100172.19;4993924;28;20057;-75
2022/06/23 11:27:37;;;;;;;0.10;0.10;;;;;;;32.12;31.08;100185.28;4993004;28;20037;-74
2022/06/23 11:30:34;;;;;;;0.10;0.10;;;;;;;31.99;30.85;100188.63;4993600;28;20034;-75
2022/06/23 11:33:22;;;;;;;0.10;0.10;;;;;;;31.95;31.44;100211.06;4992601;28;20033;-75
2022/06/23 11:35:59;;;;;;;0.10;0.10;;;;;;;31.66;31.70;100204.28;4993001;28;20041;-75
2022/06/23 11:38:47;;;;;;;0.10;0.10;;;;;;;31.46;31.90;100230.22;4992774;28;20473;-75
2022/06/23 11:41:30;;;;;;;0.10;0.10;;;;;;;31.33;31.61;100210.50;4993849;28;20040;-75
2022/06/23 11:44:23;;;;;;;0.10;0.10;;;;;;;31.36;32.61;100223.06;4993051;28;20026;-74
2022/06/23 11:47:03;;;;;;;0.10;0.10;;;;;;;31.20;32.97;100216.56;4993142;28;20034;-74
2022/06/23 11:49:47;;;;;;;0.10;0.10;;;;;;;30.99;33.32;100227.31;4992736;28;20034;-74
2022/06/23 11:52:24;;;;;;;0.10;0.10;;;;;;;31.19;32.97;100225.72;4992977;28;20547;-75
2022/06/23 11:55:04;;;;;;;0.10;0.10;;;;;;;31.06;33.16;100240.47;4993365;28;20062;-75
2022/06/23 11:57:57;;;;;;;0.10;0.10;;;;;;;31.12;33.54;100235.56;4993377;28;20482;-75
2022/06/23 12:00:39;;;;;;;0.10;0.10;;;;;;;30.80;33.66;100233.88;4992730;28;20022;-75
2022/06/23 12:03:32;;;;;;;0.10;0.10;;;;;;;30.64;33.81;100227.34;4977159;28;20057;-75
2022/06/23 12:06:26;;;;;;;0.10;0.10;;;;;;;30.85;33.55;100236.03;4993586;28;20026;-76
2022/06/23 12:08:59;;;;;;;0.10;0.10;;;;;;;31.00;34.00;100207.97;4992916;28;20022;-75
2022/06/23 12:11:25;;;;;;;;;;;;;;;31.20;33.67;100205.09;4994017;28;20428;-74
2022/06/23 12:13:52;;;;;;;0.10;0.10;;;;;;;30.84;34.54;100185.59;4993530;28;19910;-75
2022/06/23 12:16:18;;;;;;;0.10;0.10;;;;;;;31.27;33.66;100173.06;4992981;28;20030;-75
2022/06/23 12:19:06;;;;;;;0.10;0.10;;;;;;;31.17;34.16;100165.09;4992593;28;20054;-74
2022/06/23 12:21:49;;;;;;;0.10;0.10;;;;;;;31.39;32.93;100181.81;4992824;28;20026;-75
2022/06/23 12:24:35;;;;;;;0.10;0.10;;;;;;;31.50;32.91;100170.41;4993387;28;20057;-74
2022/06/23 12:27:10;;;;;;;0.10;0.10;;;;;;;31.85;31.99;100172.28;4994016;28;20030;-75
2022/06/23 12:29:50;;;;;;;0.10;0.10;;;;;;;31.67;32.39;100177.09;4993202;28;20037;-75
2022/06/23 12:32:42;;;;;;;0.10;0.10;;;;;;;32.00;31.31;100161.41;4992794;28;20019;-76
2022/06/23 12:35:15;;;;;;;0.10;0.10;;;;;;;32.12;31.06;100157.34;4963634;28;20046;-74